Time;durP1;ratioP1;P1;durP2;ratioP2;P2;SDS_P1;SDS_P2;PMS_P1;PMS_P2;Temp;Humidity;BMP_temperature;BMP_pressure;BME280_temperature;BME280_humidity;BME280_pressure;Samples;Min_cycle;Max_cycle;Signal;HPM_P1;HPM_P2
2022/08/16 00:01:53;;;;;;;8.35;4.32;;;19.10;99.90;;;;;;4953954;28;20015;-53
2022/08/16 00:04:19;;;;;;;6.18;4.78;;;19.10;99.90;;;;;;4953545;28;20032;-51
2022/08/16 00:06:44;;;;;;;82.97;60.22;;;19.20;99.90;;;;;;4954021;29;20425;-54
2022/08/16 00:09:10;;;;;;;17.70;13.48;;;19.10;99.90;;;;;;4953974;29;20508;-50
2022/08/16 00:11:36;;;;;;;6.10;5.22;;;19.20;99.90;;;;;;4954252;28;20508;-51
2022/08/16 00:14:03;;;;;;;5.47;4.13;;;19.10;99.90;;;;;;4953748;28;20031;-51
2022/08/16 00:16:31;;;;;;;5.07;4.40;;;19.10;99.90;;;;;;4952522;29;20027;-51
2022/08/16 00:18:58;;;;;;;4.35;3.95;;;19.10;99.90;;;;;;4953955;28;20023;-53
2022/08/16 00:21:23;;;;;;;4.15;3.78;;;19.00;99.90;;;;;;4953778;28;20074;-51
2022/08/16 00:23:49;;;;;;;13.95;4.70;;;19.10;99.90;;;;;;4953477;29;20027;-54
2022/08/16 00:26:15;;;;;;;6.30;4.30;;;19.10;99.90;;;;;;4953695;29;20027;-51
2022/08/16 00:28:40;;;;;;;8.23;4.20;;;19.00;99.90;;;;;;4952495;29;20034;-53
2022/08/16 00:31:06;;;;;;;6.50;3.88;;;19.00;99.90;;;;;;4953700;29;20215;-52
2022/08/16 00:33:31;;;;;;;4.28;3.70;;;19.00;99.90;;;;;;4952865;29;20106;-49
2022/08/16 00:35:57;;;;;;;7.10;4.25;;;19.00;99.90;;;;;;4953391;29;20040;-52
2022/08/16 00:38:22;;;;;;;9.38;4.50;;;19.00;99.90;;;;;;4952956;29;20078;-50
2022/08/16 00:40:51;;;;;;;5.88;3.97;;;19.00;99.90;;;;;;4954181;29;20071;-48
2022/08/16 00:43:35;;;;;;;5.57;4.35;;;18.90;99.90;;;;;;4953225;28;20404;-50
2022/08/16 00:46:22;;;;;;;4.57;3.95;;;18.90;99.90;;;;;;4953250;29;20074;-52
2022/08/16 00:48:50;;;;;;;7.70;4.15;;;18.90;99.90;;;;;;4953608;28;20027;-53
2022/08/16 00:51:17;;;;;;;5.15;4.13;;;18.90;99.90;;;;;;4953587;28;20032;-51
2022/08/16 00:53:44;;;;;;;7.30;4.43;;;18.90;99.90;;;;;;4953188;28;20101;-48
2022/08/16 00:56:14;;;;;;;5.35;4.35;;;18.90;99.90;;;;;;4953203;28;20062;-53
2022/08/16 00:58:42;;;;;;;7.38;4.13;;;18.90;99.90;;;;;;4953408;28;20023;-47
2022/08/16 01:01:09;;;;;;;4.40;3.60;;;18.90;99.90;;;;;;4953302;28;20069;-54
2022/08/16 01:03:36;;;;;;;5.93;4.82;;;18.90;99.90;;;;;;4953158;28;20377;-50
2022/08/16 01:06:03;;;;;;;6.45;4.68;;;18.90;99.90;;;;;;4953299;28;20031;-54
2022/08/16 01:08:29;;;;;;;11.63;4.35;;;18.90;99.90;;;;;;4953381;28;20027;-51
2022/08/16 01:10:55;;;;;;;8.23;5.13;;;18.90;99.90;;;;;;4953310;28;20374;-53
2022/08/16 01:13:24;;;;;;;5.22;4.72;;;18.90;99.90;;;;;;4952974;28;20028;-50
2022/08/16 01:15:55;;;;;;;4.80;4.40;;;18.90;99.90;;;;;;4954512;28;20031;-53
2022/08/16 01:18:23;;;;;;;6.63;4.78;;;18.80;99.90;;;;;;4957390;28;20027;-53
2022/08/16 01:21:10;;;;;;;4.45;4.07;;;18.80;99.90;;;;;;4955771;29;20035;-55
2022/08/16 01:24:00;;;;;;;9.90;4.85;;;18.80;99.90;;;;;;4956560;29;20031;-50
2022/08/16 01:26:29;;;;;;;9.65;4.68;;;18.80;99.90;;;;;;4956990;29;20031;-52
2022/08/16 01:28:58;;;;;;;8.10;4.40;;;18.90;99.90;;;;;;4957007;28;20027;-53
2022/08/16 01:31:25;;;;;;;5.57;4.60;;;18.90;99.90;;;;;;4956787;28;20456;-52
2022/08/16 01:33:51;;;;;;;6.88;4.30;;;18.90;99.90;;;;;;4956061;28;20039;-47
2022/08/16 01:36:16;;;;;;;4.88;3.92;;;18.90;99.90;;;;;;4956675;29;20122;-50
2022/08/16 01:38:45;;;;;;;5.75;3.22;;;18.90;99.90;;;;;;4956761;29;20027;-50
2022/08/16 01:41:15;;;;;;;7.70;4.47;;;18.80;99.90;;;;;;4956676;28;20023;-50
2022/08/16 01:43:43;;;;;;;6.25;5.07;;;18.80;99.90;;;;;;4956401;28;20552;-48
2022/08/16 01:46:28;;;;;;;7.72;5.55;;;18.80;99.90;;;;;;4956340;28;20039;-52
2022/08/16 01:49:00;;;;;;;;;;;18.70;99.90;;;;;;4956003;29;20397;-49
2022/08/16 01:51:27;;;;;;;5.90;4.95;;;18.70;99.90;;;;;;4955479;29;19910;-49
2022/08/16 01:53:53;;;;;;;6.20;4.45;;;18.70;99.90;;;;;;4956266;28;20114;-51
2022/08/16 01:56:20;;;;;;;7.13;5.68;;;18.60;99.90;;;;;;4956362;28;20031;-53
2022/08/16 01:58:46;;;;;;;6.55;4.40;;;18.60;99.90;;;;;;4956343;28;20029;-52
2022/08/16 02:01:12;;;;;;;7.57;5.00;;;18.60;99.90;;;;;;4956310;29;20027;-51
2022/08/16 02:03:38;;;;;;;7.80;5.22;;;18.60;99.90;;;;;;4956089;28;20031;-50
2022/08/16 02:06:04;;;;;;;7.80;4.90;;;18.60;99.90;;;;;;4956170;28;20035;-53
2022/08/16 02:08:30;;;;;;;5.32;4.70;;;18.50;99.90;;;;;;4956200;28;20027;-51
2022/08/16 02:10:55;;;;;;;5.72;5.15;;;18.50;99.90;;;;;;4954862;29;20027;-49
2022/08/16 02:13:21;;;;;;;7.97;5.20;;;18.50;99.90;;;;;;4955794;28;20027;-52
2022/08/16 02:15:46;;;;;;;5.40;4.93;;;18.50;99.90;;;;;;4956009;29;20034;-49
2022/08/16 02:18:13;;;;;;;7.43;5.15;;;18.50;99.90;;;;;;4956188;29;20046;-49
2022/08/16 02:20:41;;;;;;;7.07;5.15;;;18.50;99.90;;;;;;4955074;29;20031;-48
2022/08/16 02:23:07;;;;;;;8.50;5.85;;;18.50;99.90;;;;;;4954574;29;20046;-48
2022/08/16 02:25:34;;;;;;;9.10;5.43;;;18.40;99.90;;;;;;4956102;28;20023;-54
2022/08/16 02:28:00;;;;;;;8.68;5.47;;;18.30;99.90;;;;;;4955544;28;20023;-52
2022/08/16 02:30:29;;;;;;;6.22;5.45;;;18.30;99.90;;;;;;4955915;29;20382;-48
2022/08/16 02:32:56;;;;;;;7.05;5.72;;;18.30;99.90;;;;;;4955233;28;20023;-52
2022/08/16 02:35:24;;;;;;;6.32;4.97;;;18.30;99.90;;;;;;4955728;28;20046;-53
2022/08/16 02:37:51;;;;;;;6.18;5.05;;;18.20;99.90;;;;;;4954707;29;20396;-52
2022/08/16 02:40:17;;;;;;;7.28;5.28;;;18.20;99.90;;;;;;4955877;28;20110;-49
2022/08/16 02:42:44;;;;;;;7.78;5.35;;;18.20;99.90;;;;;;4955301;28;20103;-50
2022/08/16 02:45:09;;;;;;;5.90;5.25;;;18.30;99.90;;;;;;4955378;28;20041;-50
2022/08/16 02:47:35;;;;;;;6.53;5.07;;;18.30;99.90;;;;;;4955552;29;20110;-52
2022/08/16 02:50:00;;;;;;;10.38;5.70;;;18.20;99.90;;;;;;4955493;29;20552;-49
2022/08/16 02:52:26;;;;;;;9.57;5.70;;;18.20;99.90;;;;;;4955159;29;20043;-48
2022/08/16 02:54:52;;;;;;;7.35;5.53;;;18.20;99.90;;;;;;4955265;29;20477;-49
2022/08/16 02:57:18;;;;;;;6.97;5.93;;;18.20;99.90;;;;;;4955396;29;20050;-48
2022/08/16 02:59:43;;;;;;;12.73;5.00;;;18.20;99.90;;;;;;4955327;28;20038;-50
2022/08/16 03:02:09;;;;;;;5.90;5.30;;;18.10;99.90;;;;;;4955029;28;20019;-50
2022/08/16 03:04:36;;;;;;;8.00;5.20;;;18.10;99.90;;;;;;4953929;29;20023;-50
2022/08/16 03:07:05;;;;;;;5.55;5.05;;;18.20;99.90;;;;;;4953909;29;20046;-52
2022/08/16 03:09:31;;;;;;;5.20;4.70;;;18.20;99.90;;;;;;4955385;28;20039;-54
2022/08/16 03:11:56;;;;;;;9.73;5.88;;;18.20;99.90;;;;;;4954719;28;20047;-51
2022/08/16 03:14:22;;;;;;;5.47;4.97;;;18.20;99.90;;;;;;4955136;29;20031;-53
2022/08/16 03:16:47;;;;;;;10.00;5.55;;;18.20;99.90;;;;;;4954799;29;20504;-50
2022/08/16 03:19:14;;;;;;;6.43;5.82;;;18.20;99.90;;;;;;4954956;29;20397;-50
2022/08/16 03:21:39;;;;;;;5.78;5.18;;;18.20;99.90;;;;;;4954736;28;20030;-52
2022/08/16 03:24:06;;;;;;;7.05;5.15;;;18.10;99.90;;;;;;4954576;29;20019;-53
2022/08/16 03:26:32;;;;;;;8.85;5.18;;;18.10;99.90;;;;;;4954838;28;20030;-52
2022/08/16 03:28:58;;;;;;;5.35;4.90;;;18.10;99.90;;;;;;4954698;28;20031;-52
2022/08/16 03:31:24;;;;;;;7.35;5.15;;;18.10;99.90;;;;;;4954556;29;20058;-53
2022/08/16 03:33:49;;;;;;;5.22;4.80;;;18.10;99.90;;;;;;4953971;28;20035;-54
2022/08/16 03:36:15;;;;;;;7.18;5.00;;;18.10;99.90;;;;;;4954626;29;20434;-49
2022/08/16 03:38:40;;;;;;;7.72;5.22;;;18.10;99.90;;;;;;4953840;28;20031;-48
2022/08/16 03:41:06;;;;;;;7.82;5.65;;;18.10;99.90;;;;;;4953250;29;20420;-49
2022/08/16 03:43:32;;;;;;;6.13;5.55;;;18.10;99.90;;;;;;4954506;28;20551;-50
2022/08/16 03:45:58;;;;;;;6.55;4.68;;;18.10;99.90;;;;;;4954196;29;20031;-48
2022/08/16 03:48:27;;;;;;;8.50;6.25;;;18.10;99.90;;;;;;4954422;29;20027;-47
2022/08/16 03:50:53;;;;;;;7.70;6.10;;;18.10;99.90;;;;;;4954463;28;20117;-49
2022/08/16 03:53:19;;;;;;;10.32;6.32;;;18.10;99.90;;;;;;4954016;29;20062;-49
2022/08/16 03:55:44;;;;;;;8.00;5.78;;;18.10;99.90;;;;;;4952914;29;20034;-47
2022/08/16 03:58:10;;;;;;;6.10;5.35;;;18.00;99.90;;;;;;4954289;29;20035;-49
2022/08/16 04:00:35;;;;;;;8.90;5.22;;;18.00;99.90;;;;;;4954003;29;20031;-54
2022/08/16 04:03:06;;;;;;;6.03;5.32;;;18.00;99.90;;;;;;4952478;29;20106;-50
2022/08/16 04:05:35;;;;;;;11.07;5.50;;;18.00;99.90;;;;;;4954137;28;20027;-51
2022/08/16 04:08:02;;;;;;;7.32;5.60;;;18.00;99.90;;;;;;4954074;28;20098;-48
2022/08/16 04:10:27;;;;;;;5.80;5.30;;;18.00;99.90;;;;;;4953951;28;20069;-50
2022/08/16 04:12:53;;;;;;;8.65;6.15;;;18.00;99.90;;;;;;4953646;29;20477;-50
2022/08/16 04:15:19;;;;;;;5.20;4.65;;;18.00;99.90;;;;;;4953705;28;20055;-54
2022/08/16 04:17:45;;;;;;;5.57;4.72;;;18.00;99.90;;;;;;4954026;29;20027;-50
2022/08/16 04:20:12;;;;;;;6.93;5.47;;;18.00;99.90;;;;;;4953930;28;20023;-53
2022/08/16 04:22:38;;;;;;;6.93;5.13;;;18.00;99.90;;;;;;4954601;28;20526;-53
2022/08/16 04:25:05;;;;;;;7.35;5.45;;;18.00;99.90;;;;;;4953777;28;20453;-54
2022/08/16 04:27:31;;;;;;;6.88;5.82;;;18.00;99.90;;;;;;4953888;28;20027;-52
2022/08/16 04:29:56;;;;;;;8.80;6.80;;;18.00;99.90;;;;;;4953576;28;20568;-52
2022/08/16 04:32:22;;;;;;;10.95;6.93;;;18.00;99.90;;;;;;4953038;29;20023;-52
2022/08/16 04:34:48;;;;;;;8.30;6.47;;;18.00;99.90;;;;;;4953580;28;20432;-48
2022/08/16 04:37:13;;;;;;;10.05;6.93;;;18.00;99.90;;;;;;4953578;28;20031;-51
2022/08/16 04:39:39;;;;;;;10.82;6.47;;;18.00;99.90;;;;;;4953516;29;20032;-50
2022/08/16 04:42:05;;;;;;;9.52;7.30;;;18.00;99.90;;;;;;4953373;29;20027;-48
2022/08/16 04:44:31;;;;;;;10.02;6.93;;;18.00;99.90;;;;;;4952444;29;20023;-50
2022/08/16 04:46:56;;;;;;;10.15;6.70;;;18.00;99.90;;;;;;4952635;29;20133;-52
2022/08/16 04:49:22;;;;;;;11.25;7.05;;;18.00;99.90;;;;;;4953374;28;20027;-49
2022/08/16 04:51:49;;;;;;;7.70;6.55;;;18.00;99.90;;;;;;4953253;29;20035;-52
2022/08/16 04:54:14;;;;;;;8.23;6.28;;;18.10;99.90;;;;;;4951991;29;20034;-50
2022/08/16 04:56:40;;;;;;;7.03;6.32;;;18.10;99.90;;;;;;4951955;29;20035;-51
2022/08/16 04:59:07;;;;;;;10.75;6.50;;;18.20;99.90;;;;;;4953390;29;20023;-48
2022/08/16 05:01:33;;;;;;;7.32;6.63;;;18.30;99.90;;;;;;4953293;28;20027;-51
2022/08/16 05:03:59;;;;;;;8.18;7.35;;;18.40;99.90;;;;;;4953336;28;20102;-51
2022/08/16 05:06:24;;;;;;;12.73;6.63;;;18.70;99.90;;;;;;4951995;29;20122;-50
2022/08/16 05:08:50;;;;;;;8.75;6.30;;;19.00;99.90;;;;;;4953210;29;20404;-48
2022/08/16 05:11:16;;;;;;;7.70;6.45;;;19.40;99.90;;;;;;4953212;29;20031;-49
2022/08/16 05:13:44;;;;;;;13.50;6.55;;;19.80;99.90;;;;;;4953142;28;20108;-53
2022/08/16 05:16:16;;;;;;;9.98;6.43;;;20.20;99.90;;;;;;4953029;28;20031;-52
2022/08/16 05:18:42;;;;;;;10.98;6.32;;;20.40;99.90;;;;;;4952036;29;20070;-50
2022/08/16 05:21:07;;;;;;;10.57;6.82;;;20.70;99.90;;;;;;4953177;28;20027;-50
2022/08/16 05:23:33;;;;;;;7.75;6.22;;;20.90;99.90;;;;;;4952798;28;20066;-50
2022/08/16 05:25:59;;;;;;;6.63;5.90;;;21.20;99.90;;;;;;4953122;29;20485;-48
2022/08/16 05:28:25;;;;;;;11.48;6.00;;;21.70;99.90;;;;;;4953221;28;20031;-48
2022/08/16 05:30:51;;;;;;;7.35;5.25;;;22.20;99.90;;;;;;4951827;29;20028;-51
2022/08/16 05:33:17;;;;;;;7.93;5.53;;;22.60;99.90;;;;;;4952509;28;20162;-51
2022/08/16 05:35:44;;;;;;;6.15;5.50;;;23.00;99.90;;;;;;4952791;28;20031;-51
2022/08/16 05:38:09;;;;;;;5.82;5.30;;;23.30;99.90;;;;;;4953061;28;20023;-50
2022/08/16 05:40:35;;;;;;;8.70;5.50;;;23.80;99.90;;;;;;4952951;28;20073;-49
2022/08/16 05:43:00;;;;;;;13.80;6.20;;;24.10;99.90;;;;;;4952551;29;20038;-51
2022/08/16 05:45:26;;;;;;;10.15;6.10;;;24.50;99.90;;;;;;4952749;29;20046;-52
2022/08/16 05:47:52;;;;;;;9.63;5.97;;;24.70;99.90;;;;;;4952992;29;20030;-49
2022/08/16 05:50:17;;;;;;;10.48;6.18;;;25.10;99.90;;;;;;4951626;29;20020;-53
2022/08/16 05:52:43;;;;;;;6.80;5.28;;;25.00;99.90;;;;;;4952685;29;20086;-52
2022/08/16 05:55:08;;;;;;;7.57;5.63;;;25.00;99.90;;;;;;4952735;29;20031;-49
2022/08/16 05:57:34;;;;;;;9.00;5.60;;;25.10;99.90;;;;;;4952778;29;20504;-49
2022/08/16 06:00:00;;;;;;;8.23;5.45;;;25.20;99.90;;;;;;4952815;29;20023;-48
2022/08/16 06:02:29;;;;;;;5.97;4.90;;;25.00;99.90;;;;;;4954695;28;20045;-49
2022/08/16 06:04:55;;;;;;;7.65;5.80;;;24.80;99.90;;;;;;4956278;28;20094;-50
2022/08/16 06:07:20;;;;;;;5.95;5.40;;;24.70;99.90;;;;;;4954940;29;20553;-48
2022/08/16 06:09:46;;;;;;;9.02;6.25;;;24.90;99.90;;;;;;4956276;28;20046;-49
2022/08/16 06:12:12;;;;;;;6.22;5.60;;;25.30;99.90;;;;;;4955989;28;20024;-51
2022/08/16 06:14:38;;;;;;;7.35;5.85;;;25.60;99.90;;;;;;4956002;28;20061;-47
2022/08/16 06:17:03;;;;;;;8.50;6.82;;;25.80;99.90;;;;;;4956097;28;20493;-50
2022/08/16 06:19:29;;;;;;;6.82;5.30;;;26.00;99.60;;;;;;4956001;29;20034;-50
2022/08/16 06:21:55;;;;;;;7.63;5.47;;;26.40;98.80;;;;;;4955875;29;20035;-49
2022/08/16 06:24:20;;;;;;;6.88;5.80;;;26.80;98.00;;;;;;4954723;29;20476;-51
2022/08/16 06:26:46;;;;;;;5.43;4.93;;;27.30;97.50;;;;;;4955991;29;20047;-54
2022/08/16 06:29:11;;;;;;;6.18;5.55;;;27.40;96.80;;;;;;4955908;29;20023;-48
2022/08/16 06:31:37;;;;;;;5.82;5.30;;;27.70;96.20;;;;;;4953530;29;20070;-48
2022/08/16 06:34:03;;;;;;;8.35;5.65;;;27.90;95.80;;;;;;4953689;28;20035;-48
2022/08/16 06:36:28;;;;;;;8.25;6.30;;;28.20;95.10;;;;;;4955834;29;20502;-49
2022/08/16 06:38:54;;;;;;;6.28;5.57;;;28.20;95.30;;;;;;4955702;29;20035;-49
2022/08/16 06:41:20;;;;;;;5.85;5.35;;;28.20;94.90;;;;;;4955671;29;20073;-54
2022/08/16 06:43:46;;;;;;;8.30;5.72;;;28.50;94.60;;;;;;4955736;28;20376;-50
2022/08/16 06:46:34;;;;;;;6.45;5.80;;;28.70;94.60;;;;;;4954847;28;20087;-51
2022/08/16 06:49:01;;;;;;;6.18;5.30;;;28.90;94.00;;;;;;4953969;29;20027;-52
2022/08/16 06:51:26;;;;;;;8.93;6.10;;;29.40;93.60;;;;;;4955808;28;20071;-49
2022/08/16 06:53:52;;;;;;;7.07;5.53;;;29.80;92.80;;;;;;4954807;29;20433;-49
2022/08/16 06:56:17;;;;;;;6.68;5.28;;;30.10;92.70;;;;;;4955521;28;20062;-53
2022/08/16 06:58:43;;;;;;;5.57;4.82;;;30.40;92.00;;;;;;4955524;29;20031;-50
2022/08/16 07:01:08;;;;;;;5.80;4.82;;;30.90;90.80;;;;;;4953614;29;20405;-53
2022/08/16 07:03:34;;;;;;;4.78;4.30;;;30.90;90.70;;;;;;4954666;29;20027;-52
2022/08/16 07:06:00;;;;;;;5.22;4.68;;;31.00;90.20;;;;;;4955632;28;20031;-52
2022/08/16 07:08:28;;;;;;;5.95;4.65;;;30.90;90.30;;;;;;4955371;28;20059;-49
2022/08/16 07:10:54;;;;;;;6.22;3.83;;;31.20;90.20;;;;;;4955141;28;20031;-50
2022/08/16 07:13:20;;;;;;;5.55;5.05;;;31.30;89.00;;;;;;4953365;28;20330;-52
2022/08/16 07:15:48;;;;;;;5.85;4.65;;;31.50;87.70;;;;;;4955159;29;20031;-51
2022/08/16 07:18:16;;;;;;;5.63;4.97;;;32.00;85.90;;;;;;4955209;28;20019;-52
2022/08/16 07:20:43;;;;;;;4.55;4.07;;;32.00;84.50;;;;;;4955149;28;20042;-52
2022/08/16 07:23:09;;;;;;;4.95;4.18;;;31.90;84.80;;;;;;4954960;28;20327;-52
2022/08/16 07:25:34;;;;;;;6.65;4.65;;;32.10;84.60;;;;;;4954651;29;20035;-54
2022/08/16 07:28:00;;;;;;;5.18;4.65;;;32.10;84.40;;;;;;4955045;28;20429;-55
2022/08/16 07:30:27;;;;;;;5.55;5.07;;;32.30;83.50;;;;;;4954863;29;20027;-53
2022/08/16 07:32:54;;;;;;;7.68;4.35;;;32.50;82.60;;;;;;4954616;28;20079;-56
2022/08/16 07:35:19;;;;;;;5.78;3.47;;;32.60;82.70;;;;;;4954598;28;20031;-49
2022/08/16 07:37:45;;;;;;;6.75;3.60;;;32.80;82.40;;;;;;4954732;29;20030;-56
2022/08/16 07:40:11;;;;;;;7.40;4.90;;;32.90;82.50;;;;;;4954473;29;20468;-52
2022/08/16 07:42:37;;;;;;;7.13;5.07;;;33.00;82.00;;;;;;4952980;29;20030;-56
2022/08/16 07:45:04;;;;;;;6.63;5.78;;;33.40;80.90;;;;;;4954409;29;20035;-52
2022/08/16 07:47:30;;;;;;;5.82;4.80;;;33.90;79.40;;;;;;4954639;28;20046;-50
2022/08/16 07:49:55;;;;;;;4.30;3.95;;;33.90;79.10;;;;;;4954602;28;20031;-52
2022/08/16 07:52:21;;;;;;;6.78;5.35;;;34.00;79.00;;;;;;4954125;29;20028;-53
2022/08/16 07:54:46;;;;;;;5.20;4.70;;;34.20;77.80;;;;;;4954303;28;20035;-53
2022/08/16 07:57:12;;;;;;;6.45;5.88;;;34.30;78.10;;;;;;4954168;29;20039;-51
2022/08/16 07:59:38;;;;;;;7.30;6.00;;;34.20;77.70;;;;;;4954256;29;20115;-56
2022/08/16 08:02:04;;;;;;;5.97;5.47;;;34.00;77.30;;;;;;4954049;28;20023;-55
2022/08/16 08:04:31;;;;;;;5.00;4.53;;;33.40;78.80;;;;;;4954671;28;20109;-57
2022/08/16 08:06:57;;;;;;;5.43;5.00;;;33.40;79.50;;;;;;4953972;28;20085;-52
2022/08/16 08:09:23;;;;;;;6.15;5.40;;;33.40;78.80;;;;;;4954177;28;20034;-51
2022/08/16 08:11:49;;;;;;;6.43;5.55;;;33.10;78.60;;;;;;4954022;29;20122;-56
2022/08/16 08:14:15;;;;;;;7.18;5.38;;;33.00;79.70;;;;;;4953927;28;20031;-53
2022/08/16 08:16:41;;;;;;;5.93;5.43;;;32.60;79.90;;;;;;4954053;28;20062;-56
2022/08/16 08:19:09;;;;;;;7.30;6.05;;;32.60;80.30;;;;;;4954073;28;20028;-56
2022/08/16 08:21:35;;;;;;;6.70;4.80;;;32.90;79.80;;;;;;4953569;28;20023;-51
2022/08/16 08:24:01;;;;;;;5.80;5.10;;;33.10;79.70;;;;;;4951629;28;20034;-50
2022/08/16 08:26:27;;;;;;;9.10;6.20;;;33.70;78.80;;;;;;4950189;28;20031;-52
2022/08/16 08:28:53;;;;;;;8.65;5.63;;;33.70;78.10;;;;;;4955021;28;20114;-55
2022/08/16 08:31:18;;;;;;;6.70;5.00;;;33.70;78.40;;;;;;4953435;29;20102;-53
2022/08/16 08:33:44;;;;;;;7.85;5.30;;;34.20;77.80;;;;;;4952754;29;20031;-54
2022/08/16 08:36:14;;;;;;;8.65;4.38;;;34.50;76.70;;;;;;4952668;28;20042;-54
2022/08/16 08:38:40;;;;;;;5.57;4.93;;;34.40;76.20;;;;;;4953650;28;20024;-50
2022/08/16 08:41:07;;;;;;;5.97;4.20;;;34.30;76.40;;;;;;4953207;28;20413;-51
2022/08/16 08:43:34;;;;;;;5.30;4.90;;;34.60;76.00;;;;;;4944815;28;20038;-50
2022/08/16 08:46:00;;;;;;;6.22;4.15;;;34.60;75.80;;;;;;4941860;29;20412;-50
2022/08/16 08:48:25;;;;;;;6.10;4.90;;;34.70;75.80;;;;;;4954332;28;20110;-53
2022/08/16 08:50:51;;;;;;;6.40;3.92;;;34.80;75.40;;;;;;4953810;28;20091;-50
2022/08/16 08:53:16;;;;;;;8.75;4.45;;;34.90;75.40;;;;;;4953341;28;20035;-52
2022/08/16 08:55:42;;;;;;;8.05;4.53;;;34.90;75.00;;;;;;4954052;28;20043;-52
2022/08/16 08:58:07;;;;;;;6.00;4.88;;;35.10;74.80;;;;;;4953036;29;20032;-53
2022/08/16 09:00:34;;;;;;;5.65;4.50;;;34.90;74.20;;;;;;4951831;29;20504;-52
2022/08/16 09:02:59;;;;;;;6.32;5.20;;;34.50;75.10;;;;;;4952769;28;20050;-51
2022/08/16 09:05:26;;;;;;;6.70;4.20;;;33.70;75.80;;;;;;4953191;28;20067;-52
2022/08/16 09:07:52;;;;;;;7.25;5.10;;;33.00;77.10;;;;;;4953082;28;20031;-52
2022/08/16 09:10:18;;;;;;;6.30;5.47;;;32.60;78.20;;;;;;4953228;29;20094;-49
2022/08/16 09:12:46;;;;;;;6.07;4.95;;;32.00;79.10;;;;;;4952716;28;20027;-50
2022/08/16 09:15:14;;;;;;;6.82;4.32;;;31.50;79.80;;;;;;4952921;28;20054;-52
2022/08/16 09:17:41;;;;;;;10.98;4.47;;;31.10;81.30;;;;;;4950275;29;20027;-49
2022/08/16 09:20:09;;;;;;;7.82;4.97;;;30.80;83.00;;;;;;4953518;28;20034;-51
2022/08/16 09:22:34;;;;;;;5.57;3.90;;;30.80;83.40;;;;;;4951058;28;20159;-48
2022/08/16 09:25:00;;;;;;;60.75;51.88;;;31.00;83.50;;;;;;4953938;28;20046;-48
2022/08/16 09:27:27;;;;;;;8.73;7.90;;;31.20;82.60;;;;;;4952349;28;20571;-52
2022/08/16 09:29:53;;;;;;;7.35;3.83;;;31.20;82.50;;;;;;4953193;28;20050;-53
2022/08/16 09:32:18;;;;;;;7.68;4.68;;;31.10;82.70;;;;;;4952439;28;20114;-50
2022/08/16 09:34:44;;;;;;;6.13;5.43;;;31.00;81.40;;;;;;4952743;28;20034;-48
2022/08/16 09:37:12;;;;;;;5.22;4.05;;;30.70;82.60;;;;;;4953682;28;20452;-49
2022/08/16 09:39:37;;;;;;;4.80;4.10;;;30.60;83.60;;;;;;4953658;29;20070;-49
2022/08/16 09:42:03;;;;;;;7.35;4.05;;;30.70;84.20;;;;;;4958716;28;20039;-52
2022/08/16 09:44:29;;;;;;;5.53;4.10;;;30.80;83.60;;;;;;4975906;28;20034;-49
2022/08/16 09:46:56;;;;;;;3.70;3.40;;;30.70;83.10;;;;;;4973122;28;20123;-51
2022/08/16 09:49:22;;;;;;;4.90;4.07;;;30.40;83.40;;;;;;4956704;28;20401;-53
2022/08/16 09:51:53;;;;;;;3.50;3.17;;;30.00;83.80;;;;;;4955101;29;20027;-47
2022/08/16 09:54:21;;;;;;;5.85;4.20;;;30.00;83.10;;;;;;4953659;29;20545;-54
2022/08/16 09:56:47;;;;;;;6.40;4.20;;;29.70;84.20;;;;;;4956207;28;20070;-52
2022/08/16 09:59:14;;;;;;;5.25;4.38;;;29.50;85.90;;;;;;4954758;29;20023;-54
2022/08/16 10:01:41;;;;;;;4.80;4.30;;;29.20;86.60;;;;;;4956071;28;20019;-54
2022/08/16 10:04:07;;;;;;;4.88;4.38;;;28.50;88.20;;;;;;4955634;28;20023;-53
2022/08/16 10:06:34;;;;;;;6.28;4.40;;;28.30;89.80;;;;;;4956057;28;20023;-53
2022/08/16 10:09:02;;;;;;;5.70;5.10;;;28.20;89.90;;;;;;4954426;29;20031;-54
2022/08/16 10:14:12;;;;;;;7.72;4.80;;;27.80;91.00;;;;;;4955754;29;20038;-53
2022/08/16 10:16:38;;;;;;;4.78;4.28;;;28.10;91.00;;;;;;4955713;28;20481;-55
2022/08/16 10:19:03;;;;;;;6.90;4.40;;;28.30;90.10;;;;;;4955649;29;20106;-53
2022/08/16 10:21:29;;;;;;;4.18;3.88;;;28.30;89.20;;;;;;4982438;23;20027;-50
2022/08/16 10:23:54;;;;;;;5.15;4.32;;;28.30;89.60;;;;;;4950888;29;20046;-46
2022/08/16 10:26:23;;;;;;;3.55;3.25;;;28.30;89.80;;;;;;4956198;29;20408;-46
2022/08/16 10:28:49;;;;;;;5.82;3.58;;;28.40;90.20;;;;;;4944423;28;20174;-47
2022/08/16 10:31:14;;;;;;;6.22;3.20;;;28.40;88.00;;;;;;4938226;29;20114;-49
2022/08/16 10:33:40;;;;;;;5.22;3.10;;;28.20;89.10;;;;;;4936682;29;20560;-45
2022/08/16 10:36:07;;;;;;;7.82;3.88;;;28.10;89.40;;;;;;4937049;29;20112;-50
2022/08/16 10:38:36;;;;;;;5.13;2.83;;;28.10;88.70;;;;;;4936919;29;20055;-46
2022/08/16 10:41:03;;;;;;;3.53;3.20;;;28.10;89.40;;;;;;4936630;29;20389;-47
2022/08/16 10:43:28;;;;;;;3.30;3.10;;;28.10;88.80;;;;;;4936588;29;20031;-46
2022/08/16 10:45:54;;;;;;;4.82;3.60;;;27.90;88.50;;;;;;4923314;29;20055;-45
2022/08/16 10:48:19;;;;;;;4.20;2.90;;;27.70;88.50;;;;;;4935549;29;20123;-53
2022/08/16 10:50:45;;;;;;;3.95;2.78;;;27.60;89.50;;;;;;4936895;29;20060;-45
2022/08/16 10:53:11;;;;;;;6.88;3.08;;;27.70;90.40;;;;;;4937321;29;20035;-44
2022/08/16 10:55:39;;;;;;;3.42;3.20;;;27.80;90.60;;;;;;4938335;29;20028;-46
2022/08/16 10:58:07;;;;;;;4.05;3.00;;;27.90;90.40;;;;;;4939528;29;20028;-58
2022/08/16 11:00:37;;;;;;;2.97;2.72;;;28.00;90.80;;;;;;4937015;29;20111;-46
2022/08/16 11:03:03;;;;;;;4.55;4.03;;;28.10;90.00;;;;;;4935961;29;20030;-48
2022/08/16 11:05:30;;;;;;;5.22;3.60;;;28.10;89.40;;;;;;4936437;29;20040;-45
2022/08/16 11:07:56;;;;;;;4.20;3.63;;;28.10;89.10;;;;;;4936589;29;20031;-47
2022/08/16 11:10:34;;;;;;;3.88;3.08;;;28.10;89.50;;;;;;4936471;29;20221;-46
2022/08/16 11:13:00;;;;;;;3.17;2.97;;;28.20;89.80;;;;;;4936144;29;20079;-45
2022/08/16 11:15:26;;;;;;;3.35;3.05;;;28.30;89.30;;;;;;4936389;29;20119;-47
2022/08/16 11:17:53;;;;;;;5.15;3.10;;;28.40;88.40;;;;;;4936368;29;20103;-46
2022/08/16 11:20:20;;;;;;;6.22;3.15;;;28.20;88.90;;;;;;4936049;29;20028;-46
2022/08/16 11:22:47;;;;;;;4.15;3.15;;;28.10;89.80;;;;;;4935972;29;20039;-46
2022/08/16 11:25:15;;;;;;;3.80;3.45;;;27.90;90.00;;;;;;4936022;29;20401;-46
2022/08/16 11:27:40;;;;;;;5.93;2.63;;;27.80;88.80;;;;;;4936068;29;20481;-47
2022/08/16 11:30:09;;;;;;;8.23;2.72;;;27.70;89.00;;;;;;4935963;29;20111;-46
2022/08/16 11:32:36;;;;;;;4.90;4.50;;;27.70;90.00;;;;;;4935384;29;20023;-46
2022/08/16 11:35:05;;;;;;;5.63;4.25;;;27.60;90.00;;;;;;4935797;29;20043;-47
2022/08/16 11:37:33;;;;;;;6.00;3.38;;;27.60;90.30;;;;;;4936111;29;20023;-46
2022/08/16 11:39:58;;;;;;;4.13;3.00;;;27.60;90.50;;;;;;4936341;29;20020;-45
2022/08/16 11:42:24;;;;;;;3.47;3.15;;;27.50;89.60;;;;;;4935231;29;20050;-50
2022/08/16 11:44:49;;;;;;;4.90;2.90;;;27.40;89.50;;;;;;4935747;29;20028;-46
2022/08/16 11:47:15;;;;;;;7.13;3.55;;;27.30;89.40;;;;;;4935471;29;20107;-43
2022/08/16 11:49:40;;;;;;;6.65;4.00;;;27.30;90.30;;;;;;4935609;29;20111;-50
2022/08/16 11:52:06;;;;;;;4.47;3.25;;;27.30;90.50;;;;;;4935246;29;20127;-45
2022/08/16 11:54:31;;;;;;;7.45;3.30;;;27.40;90.60;;;;;;4935537;29;20087;-43
2022/08/16 11:56:58;;;;;;;5.45;3.53;;;27.30;90.90;;;;;;4934853;29;20071;-52
2022/08/16 11:59:26;;;;;;;4.13;3.00;;;27.40;90.50;;;;;;4934787;29;20047;-47
2022/08/16 12:01:52;;;;;;;4.78;3.42;;;27.40;90.50;;;;;;4935267;29;20401;-44
2022/08/16 12:04:17;;;;;;;3.65;2.90;;;27.40;90.50;;;;;;4935091;29;20024;-49
2022/08/16 12:06:43;;;;;;;3.50;3.20;;;27.40;90.20;;;;;;4934899;29;20063;-45
2022/08/16 12:09:08;;;;;;;3.33;3.05;;;27.40;90.20;;;;;;4935334;29;20412;-54
2022/08/16 12:11:34;;;;;;;4.57;3.03;;;27.40;90.00;;;;;;4935525;29;20031;-46
2022/08/16 12:14:01;;;;;;;4.78;3.15;;;27.40;90.00;;;;;;4934994;29;20023;-49
2022/08/16 12:16:27;;;;;;;7.40;2.95;;;27.30;90.20;;;;;;4935142;29;20035;-49
2022/08/16 12:18:53;;;;;;;2.80;2.60;;;27.40;90.60;;;;;;4935912;29;20038;-46
2022/08/16 12:21:18;;;;;;;3.55;3.25;;;27.50;90.80;;;;;;4934529;29;20146;-48
2022/08/16 12:23:44;;;;;;;3.95;3.15;;;27.50;90.00;;;;;;4932964;29;20094;-52
2022/08/16 12:26:09;;;;;;;2.80;2.47;;;27.50;89.80;;;;;;4934894;29;20146;-47
2022/08/16 12:28:35;;;;;;;5.38;3.15;;;27.50;89.10;;;;;;4934992;29;20034;-44
2022/08/16 12:31:00;;;;;;;3.60;3.05;;;27.50;89.30;;;;;;4934886;29;20058;-50
2022/08/16 12:33:26;;;;;;;3.60;3.15;;;27.50;88.90;;;;;;4934325;29;20043;-41
2022/08/16 12:35:51;;;;;;;5.13;3.15;;;27.40;90.20;;;;;;4934982;29;20071;-42
2022/08/16 12:38:17;;;;;;;3.45;3.20;;;27.50;90.60;;;;;;4932934;29;20035;-49
2022/08/16 12:40:47;;;;;;;5.57;3.20;;;27.50;89.60;;;;;;4934807;29;20027;-51
2022/08/16 12:43:14;;;;;;;4.80;4.05;;;27.50;89.40;;;;;;4934132;29;20105;-48
2022/08/16 12:45:43;;;;;;;8.20;3.15;;;27.40;89.60;;;;;;4934746;29;20034;-44